createdAt,value
2018-03-18T00:01:53.131Z,33.60
2018-03-18T00:04:25.630Z,33.14
2018-03-18T00:06:58.098Z,32.75
2018-03-18T00:09:30.596Z,33.08
2018-03-18T00:12:03.075Z,33.06
2018-03-18T00:14:35.741Z,32.75
2018-03-18T00:17:33.470Z,33.50
2018-03-18T00:20:09.041Z,33.43
2018-03-18T00:22:41.671Z,33.54
2018-03-18T00:25:14.311Z,33.08
2018-03-18T00:27:46.787Z,34.41
2018-03-18T00:30:19.283Z,34.42
2018-03-18T00:32:51.755Z,33.54
2018-03-18T00:35:24.251Z,33.91
2018-03-18T00:37:56.728Z,34.33
2018-03-18T00:40:29.225Z,33.15
2018-03-18T00:43:01.707Z,33.29
2018-03-18T00:45:34.259Z,33.59
2018-03-18T00:48:07.063Z,33.79
2018-03-18T00:50:39.609Z,33.13
2018-03-18T00:53:12.178Z,33.10
2018-03-18T00:55:44.777Z,34.37
2018-03-18T00:58:17.322Z,34.69
2018-03-18T01:00:49.806Z,33.38
2018-03-18T01:03:22.301Z,33.33
2018-03-18T01:05:54.771Z,33.63
2018-03-18T01:08:27.271Z,32.99
2018-03-18T01:10:59.745Z,33.39
2018-03-18T01:13:32.236Z,33.30
2018-03-18T01:16:04.985Z,33.50
2018-03-18T01:18:37.802Z,34.01
2018-03-18T01:21:10.404Z,34.35
2018-03-18T01:23:43.048Z,33.53
2018-03-18T01:26:15.555Z,33.80
2018-03-18T01:28:48.059Z,33.73
2018-03-18T01:31:20.535Z,33.89
2018-03-18T01:33:53.031Z,33.93
2018-03-18T01:36:25.526Z,33.42
2018-03-18T01:38:58.028Z,34.27
2018-03-18T01:41:30.504Z,34.05
2018-03-18T01:44:03.007Z,33.50
2018-03-18T01:46:35.851Z,33.93
2018-03-18T01:49:08.601Z,33.54
2018-03-18T01:51:41.161Z,33.82
2018-03-18T01:54:13.830Z,34.18
2018-03-18T01:56:46.392Z,34.66
2018-03-18T01:59:18.931Z,34.23
2018-03-18T02:01:51.412Z,33.76
2018-03-18T02:04:23.915Z,33.79
2018-03-18T02:06:56.398Z,34.00
2018-03-18T02:09:28.889Z,34.66
2018-03-18T02:12:01.376Z,34.04
2018-03-18T02:14:33.874Z,34.00
2018-03-18T02:17:06.605Z,33.89
2018-03-18T02:19:39.756Z,33.99
2018-03-18T02:22:13.059Z,34.00
2018-03-18T02:24:45.626Z,33.59
2018-03-18T02:27:18.719Z,34.06
2018-03-18T02:29:51.269Z,33.83
2018-03-18T02:32:23.751Z,34.17
2018-03-18T02:34:56.261Z,34.13
2018-03-18T02:37:28.742Z,34.24
2018-03-18T02:40:01.232Z,34.04
2018-03-18T02:42:33.708Z,33.96
2018-03-18T02:45:06.443Z,33.64
2018-03-18T02:47:39.185Z,34.24
2018-03-18T02:50:11.806Z,34.50
2018-03-18T02:52:44.441Z,34.19
2018-03-18T02:55:17.912Z,33.79
2018-03-18T02:57:50.410Z,34.43
2018-03-18T03:00:22.910Z,34.14
2018-03-18T03:02:55.388Z,34.21
2018-03-18T03:05:27.885Z,34.38
2018-03-18T03:08:00.354Z,33.83
2018-03-18T03:10:32.851Z,33.92
2018-03-18T03:13:05.522Z,33.85
2018-03-18T03:15:39.072Z,34.60
2018-03-18T03:18:11.643Z,34.12
2018-03-18T03:20:44.264Z,33.77
2018-03-18T03:23:16.833Z,34.75
2018-03-18T03:25:49.366Z,34.26
2018-03-18T03:28:21.850Z,34.33
2018-03-18T03:30:54.347Z,33.71
2018-03-18T03:33:26.825Z,33.91
2018-03-18T03:35:59.336Z,33.75
2018-03-18T03:38:31.804Z,34.04
2018-03-18T03:41:04.415Z,34.22
2018-03-18T03:43:37.084Z,34.51
2018-03-18T03:46:09.716Z,35.11
2018-03-18T03:48:42.285Z,34.31
2018-03-18T03:51:14.842Z,34.00
2018-03-18T03:53:47.331Z,33.96
2018-03-18T03:56:19.827Z,34.29
2018-03-18T03:58:52.309Z,34.08
2018-03-18T04:01:24.804Z,34.97
2018-03-18T04:03:57.283Z,33.95
2018-03-18T04:06:29.778Z,34.50
2018-03-18T04:09:02.259Z,34.53
2018-03-18T04:11:34.878Z,34.37
2018-03-18T04:14:07.522Z,34.76
2018-03-18T04:16:40.195Z,34.17
2018-03-18T04:19:12.796Z,34.22
2018-03-18T04:21:45.358Z,34.57
2018-03-18T04:24:17.850Z,34.88
2018-03-18T04:26:50.347Z,33.92
2018-03-18T04:29:22.819Z,34.96
2018-03-18T04:31:55.306Z,34.52
2018-03-18T04:34:27.782Z,35.14
2018-03-18T04:37:00.279Z,34.27
2018-03-18T04:39:32.786Z,33.82
2018-03-18T04:42:05.435Z,34.95
2018-03-18T04:44:38.291Z,34.53
2018-03-18T04:47:10.832Z,35.40
2018-03-18T04:49:43.383Z,34.86
2018-03-18T04:52:15.870Z,34.59
2018-03-18T04:54:48.362Z,34.75
2018-03-18T04:57:20.839Z,34.62
2018-03-18T04:59:53.339Z,34.97
2018-03-18T05:02:25.822Z,34.95
2018-03-18T05:04:58.326Z,34.59
2018-03-18T05:07:30.812Z,34.55
2018-03-18T05:10:03.306Z,35.47
2018-03-18T05:12:35.898Z,34.78
2018-03-18T05:15:08.680Z,34.26
2018-03-18T05:17:41.346Z,34.89
2018-03-18T05:20:13.926Z,35.61
2018-03-18T05:22:46.435Z,35.49
2018-03-18T05:25:18.987Z,34.96
2018-03-18T05:27:51.463Z,35.48
2018-03-18T05:30:23.950Z,35.18
2018-03-18T05:32:56.423Z,34.72
2018-03-18T05:35:28.914Z,34.85
2018-03-18T05:38:01.397Z,34.97
2018-03-18T05:40:33.887Z,35.59
2018-03-18T05:43:06.786Z,37.78
2018-03-18T05:45:39.499Z,35.19
2018-03-18T05:48:12.088Z,35.26
2018-03-18T05:50:44.649Z,35.18
2018-03-18T05:53:17.169Z,34.91
2018-03-18T05:55:49.665Z,35.99
2018-03-18T05:58:22.144Z,35.48
2018-03-18T06:00:54.638Z,34.96
2018-03-18T06:03:27.115Z,35.12
2018-03-18T06:05:59.608Z,35.51
2018-03-18T06:08:32.078Z,35.74
2018-03-18T06:11:04.640Z,34.85
2018-03-18T06:13:37.341Z,35.95
2018-03-18T06:16:09.972Z,36.41
2018-03-18T06:18:42.501Z,35.49
2018-03-18T06:21:15.023Z,36.42
2018-03-18T06:23:47.515Z,35.69
2018-03-18T06:26:20.019Z,34.99
2018-03-18T06:28:52.490Z,35.10
2018-03-18T06:31:25.012Z,34.67
2018-03-18T06:33:57.483Z,35.16
2018-03-18T06:36:29.970Z,34.85
2018-03-18T06:39:02.439Z,35.31
2018-03-18T06:41:35.041Z,34.88
2018-03-18T06:44:08.195Z,34.05
2018-03-18T06:46:40.762Z,34.85
2018-03-18T06:49:13.286Z,34.71
2018-03-18T06:51:45.889Z,34.48
2018-03-18T06:54:18.371Z,35.05
2018-03-18T06:56:50.871Z,34.46
2018-03-18T06:59:23.394Z,34.48
2018-03-18T07:01:55.886Z,35.40
2018-03-18T07:04:28.358Z,34.67
2018-03-18T07:07:00.870Z,34.71
2018-03-18T07:09:33.348Z,34.53
2018-03-18T07:12:06.172Z,33.96
2018-03-18T07:14:38.875Z,33.44
2018-03-18T07:17:11.562Z,32.97
2018-03-18T07:19:44.149Z,33.11
2018-03-18T07:22:16.764Z,33.73
2018-03-18T07:24:49.302Z,33.50
2018-03-18T07:27:21.813Z,33.43
2018-03-18T07:29:54.298Z,33.00
2018-03-18T07:32:26.793Z,33.94
2018-03-18T07:34:59.262Z,34.33
2018-03-18T07:37:31.762Z,32.34
2018-03-18T07:40:04.554Z,34.13
2018-03-18T07:42:37.650Z,32.50
2018-03-18T07:45:10.291Z,33.46
2018-03-18T07:47:42.942Z,31.82
2018-03-18T07:50:15.540Z,32.31
2018-03-18T07:52:48.101Z,32.33
2018-03-18T07:55:20.602Z,32.27
2018-03-18T07:57:53.096Z,31.90
2018-03-18T08:00:25.574Z,31.32
2018-03-18T08:02:58.075Z,31.70
2018-03-18T08:05:30.560Z,31.48
2018-03-18T08:08:03.058Z,31.47
2018-03-18T08:10:35.794Z,31.45
2018-03-18T08:13:08.676Z,32.02
2018-03-18T08:15:41.277Z,31.63
2018-03-18T08:18:13.846Z,32.01
2018-03-18T08:20:46.388Z,31.43
2018-03-18T08:23:18.978Z,31.22
2018-03-18T08:25:51.478Z,31.83
2018-03-18T08:28:23.956Z,30.10
2018-03-18T08:30:56.442Z,30.20
2018-03-18T08:33:28.915Z,30.63
2018-03-18T08:36:01.415Z,30.70
2018-03-18T08:38:33.901Z,29.75
2018-03-18T08:41:06.760Z,29.69
2018-03-18T08:43:39.595Z,29.54
2018-03-18T08:46:12.229Z,29.44
2018-03-18T08:48:44.743Z,30.16
2018-03-18T08:51:17.276Z,29.98
2018-03-18T08:53:49.750Z,30.37
2018-03-18T08:56:22.238Z,28.26
2018-03-18T08:58:54.712Z,28.82
2018-03-18T09:01:27.211Z,28.32
2018-03-18T09:03:59.684Z,28.94
2018-03-18T09:06:32.175Z,28.86
2018-03-18T09:09:04.913Z,27.88
2018-03-18T09:11:38.123Z,27.77
2018-03-18T09:14:10.732Z,27.66
2018-03-18T09:16:43.274Z,27.21
2018-03-18T09:19:15.902Z,27.58
2018-03-18T09:21:48.474Z,27.25
2018-03-18T09:24:20.988Z,27.36
2018-03-18T09:26:53.493Z,28.42
2018-03-18T09:29:26.495Z,28.05
2018-03-18T09:31:58.998Z,27.11
2018-03-18T09:34:31.472Z,28.07
2018-03-18T09:37:03.985Z,26.93
2018-03-18T09:39:36.759Z,27.10
2018-03-18T09:42:09.567Z,26.33
2018-03-18T09:44:42.196Z,26.89
2018-03-18T09:47:14.766Z,27.36
2018-03-18T09:49:47.429Z,26.75
2018-03-18T09:52:19.938Z,27.46
2018-03-18T09:54:52.397Z,26.35
2018-03-18T09:57:24.883Z,26.27
2018-03-18T09:59:57.350Z,26.32
2018-03-18T10:02:29.877Z,26.59
2018-03-18T10:05:02.327Z,25.49
2018-03-18T10:07:35.183Z,26.40
2018-03-18T10:10:07.783Z,25.88
2018-03-18T10:12:40.868Z,26.59
2018-03-18T10:15:13.428Z,25.78
2018-03-18T10:17:46.151Z,25.37
2018-03-18T10:20:18.667Z,24.63
2018-03-18T10:22:51.167Z,25.68
2018-03-18T10:25:23.640Z,25.48
2018-03-18T10:27:56.155Z,24.88
2018-03-18T10:30:28.626Z,25.13
2018-03-18T10:33:01.118Z,25.13
2018-03-18T10:35:33.588Z,24.63
2018-03-18T10:38:06.229Z,24.08
2018-03-18T10:40:39.349Z,24.77
2018-03-18T10:43:11.919Z,24.87
2018-03-18T10:45:44.509Z,24.36
2018-03-18T10:48:17.049Z,25.25
2018-03-18T10:50:49.541Z,24.51
2018-03-18T10:53:22.029Z,24.27
2018-03-18T10:55:54.505Z,24.49
2018-03-18T10:58:27.004Z,25.69
2018-03-18T11:01:05.143Z,25.22
2018-03-18T11:03:40.402Z,24.19
2018-03-18T11:06:12.927Z,24.11
2018-03-18T11:08:45.552Z,22.95
2018-03-18T11:11:18.056Z,22.43
2018-03-18T11:13:51.380Z,23.21
2018-03-18T11:16:23.857Z,23.91
2018-03-18T11:18:56.356Z,23.04
2018-03-18T11:21:28.830Z,22.46
2018-03-18T11:24:01.324Z,22.51
2018-03-18T11:26:33.808Z,22.88
2018-03-18T11:29:06.434Z,23.35
2018-03-18T11:31:39.078Z,23.80
2018-03-18T11:34:26.443Z,23.10
2018-03-18T11:36:58.940Z,23.48
2018-03-18T11:39:31.414Z,22.31
2018-03-18T11:42:03.907Z,22.87
2018-03-18T11:44:36.517Z,22.88
2018-03-18T11:47:09.067Z,22.68
2018-03-18T11:49:41.567Z,21.46
2018-03-18T11:52:14.096Z,21.10
2018-03-18T11:54:46.577Z,22.42
2018-03-18T11:57:19.127Z,21.42
2018-03-18T11:59:51.602Z,21.42
2018-03-18T12:02:24.096Z,22.23
2018-03-18T12:04:56.564Z,21.82
2018-03-18T12:07:29.046Z,21.80
2018-03-18T12:10:01.519Z,21.20
2018-03-18T12:12:34.014Z,21.47
2018-03-18T12:15:06.567Z,22.05
2018-03-18T12:17:39.233Z,20.70
2018-03-18T12:20:11.743Z,20.73
2018-03-18T12:22:44.250Z,20.93
2018-03-18T12:25:16.735Z,20.84
2018-03-18T12:27:49.234Z,21.94
2018-03-18T12:30:21.706Z,19.64
2018-03-18T12:32:54.190Z,20.78
2018-03-18T12:35:26.667Z,20.25
2018-03-18T12:37:59.165Z,21.82
2018-03-18T12:40:33.447Z,20.83
2018-03-18T12:43:17.891Z,20.72
2018-03-18T12:45:50.360Z,20.06
2018-03-18T12:48:22.854Z,20.18
2018-03-18T12:50:55.334Z,20.89
2018-03-18T12:53:27.825Z,19.62
2018-03-18T12:56:00.299Z,20.22
2018-03-18T12:58:32.860Z,20.17
2018-03-18T13:01:05.398Z,19.85
2018-03-18T13:03:38.140Z,21.28
2018-03-18T13:06:10.693Z,19.72
2018-03-18T13:08:43.191Z,20.44
2018-03-18T13:11:15.662Z,19.97
2018-03-18T13:13:48.167Z,20.33
2018-03-18T13:16:20.653Z,20.90
2018-03-18T13:18:53.151Z,20.35
2018-03-18T13:21:25.626Z,20.81
2018-03-18T13:23:58.123Z,21.19
2018-03-18T13:26:30.591Z,20.39
2018-03-18T13:29:03.079Z,20.67
2018-03-18T13:31:35.562Z,20.81
2018-03-18T13:34:08.116Z,20.73
2018-03-18T13:36:40.595Z,20.54
2018-03-18T13:39:13.116Z,20.60
2018-03-18T13:41:45.597Z,20.15
2018-03-18T13:44:18.088Z,20.84
2018-03-18T13:46:50.564Z,20.39
2018-03-18T13:49:23.065Z,19.67
2018-03-18T13:51:55.535Z,20.27
2018-03-18T13:54:28.067Z,19.90
2018-03-18T13:57:00.524Z,20.75
2018-03-18T13:59:33.012Z,20.99
2018-03-18T14:02:05.490Z,20.70
2018-03-18T14:04:38.044Z,21.01
2018-03-18T14:07:10.522Z,20.69
2018-03-18T14:09:43.029Z,20.82
2018-03-18T14:12:15.497Z,20.25
2018-03-18T14:14:47.996Z,20.70
2018-03-18T14:17:21.319Z,20.65
2018-03-18T14:19:53.808Z,21.45
2018-03-18T14:22:26.275Z,20.63
2018-03-18T14:24:58.772Z,21.10
2018-03-18T14:27:31.248Z,21.48
2018-03-18T14:30:03.734Z,21.15
2018-03-18T14:32:36.252Z,20.83
2018-03-18T14:35:08.796Z,19.91
2018-03-18T14:37:41.274Z,21.54
2018-03-18T14:40:13.787Z,21.44
2018-03-18T14:42:46.259Z,21.10
2018-03-18T14:45:18.754Z,21.03
2018-03-18T14:47:51.246Z,20.51
2018-03-18T14:50:23.747Z,20.84
2018-03-18T14:52:56.223Z,21.43
2018-03-18T14:55:28.731Z,20.88
2018-03-18T14:58:01.202Z,20.96
2018-03-18T15:00:33.693Z,21.67
2018-03-18T15:03:06.178Z,21.89
2018-03-18T15:05:38.671Z,22.09
2018-03-18T15:08:11.143Z,21.45
2018-03-18T15:10:43.655Z,21.86
2018-03-18T15:13:16.132Z,21.59
2018-03-18T15:15:48.625Z,22.06
2018-03-18T15:18:21.112Z,22.33
2018-03-18T15:20:53.624Z,22.56
2018-03-18T15:23:26.118Z,22.08
2018-03-18T15:25:58.626Z,21.98
2018-03-18T15:28:31.100Z,22.38
2018-03-18T15:31:03.590Z,22.29
2018-03-18T15:33:36.138Z,21.72
2018-03-18T15:36:08.726Z,21.45
2018-03-18T15:38:41.230Z,21.87
2018-03-18T15:41:13.755Z,21.57
2018-03-18T15:43:46.222Z,21.29
2018-03-18T15:46:18.711Z,21.89
2018-03-18T15:48:51.182Z,21.29
2018-03-18T15:51:23.773Z,21.73
2018-03-18T15:53:56.158Z,21.91
2018-03-18T15:56:28.648Z,21.75
2018-03-18T15:59:01.161Z,21.69
2018-03-18T16:01:33.635Z,22.00
2018-03-18T16:04:06.285Z,21.97
2018-03-18T16:06:38.799Z,22.36
2018-03-18T16:09:11.326Z,22.25
2018-03-18T16:11:43.838Z,22.24
2018-03-18T16:14:16.335Z,22.08
2018-03-18T16:16:48.804Z,22.17
2018-03-18T16:19:21.296Z,22.15
2018-03-18T16:21:53.770Z,22.27
2018-03-18T16:24:26.264Z,22.31
2018-03-18T16:26:58.739Z,22.37
2018-03-18T16:29:43.018Z,22.20
2018-03-18T16:32:15.503Z,22.59
2018-03-18T16:34:47.999Z,22.17
2018-03-18T16:37:21.331Z,22.45
2018-03-18T16:39:53.823Z,22.56
2018-03-18T16:42:26.315Z,22.46
2018-03-18T16:44:58.811Z,22.91
2018-03-18T16:47:31.288Z,21.96
2018-03-18T16:50:03.804Z,22.33
2018-03-18T16:52:36.329Z,22.73
2018-03-18T16:55:08.908Z,22.45
2018-03-18T16:57:41.414Z,22.26
2018-03-18T17:00:13.971Z,22.55
2018-03-18T17:02:46.447Z,22.19
2018-03-18T17:05:18.942Z,22.49
2018-03-18T17:07:51.406Z,22.15
2018-03-18T17:10:23.895Z,21.99
2018-03-18T17:12:56.370Z,21.99
2018-03-18T17:15:28.863Z,22.10
2018-03-18T17:18:01.452Z,21.92
2018-03-18T17:20:33.930Z,22.41
2018-03-18T17:23:06.491Z,23.44
2018-03-18T17:25:39.031Z,22.09
2018-03-18T17:28:11.601Z,22.44
2018-03-18T17:30:44.143Z,22.11
2018-03-18T17:33:16.625Z,22.10
2018-03-18T17:35:49.112Z,21.97
2018-03-18T17:38:21.587Z,21.99
2018-03-18T17:40:54.078Z,21.76
2018-03-18T17:43:26.553Z,22.13
2018-03-18T17:46:10.768Z,21.93
2018-03-18T17:48:55.199Z,22.07
2018-03-18T17:51:39.488Z,22.11
2018-03-18T17:54:23.783Z,22.23
2018-03-18T17:56:56.294Z,22.39
2018-03-18T17:59:28.767Z,22.49
2018-03-18T18:02:01.266Z,22.60
2018-03-18T18:04:33.759Z,22.69
2018-03-18T18:07:06.310Z,22.24
2018-03-18T18:09:38.854Z,22.99
2018-03-18T18:12:11.414Z,23.14
2018-03-18T18:14:43.968Z,23.38
2018-03-18T18:17:16.468Z,23.08
2018-03-18T18:19:48.951Z,23.30
2018-03-18T18:22:21.443Z,22.73
2018-03-18T18:24:53.918Z,23.11
2018-03-18T18:27:26.412Z,23.33
2018-03-18T18:29:58.876Z,23.24
2018-03-18T18:32:31.366Z,23.24
2018-03-18T18:35:03.879Z,23.32
2018-03-18T18:37:36.418Z,23.19
2018-03-18T18:40:09.027Z,23.54
2018-03-18T18:42:41.579Z,23.54
2018-03-18T18:45:14.068Z,24.02
2018-03-18T18:47:46.583Z,23.65
2018-03-18T18:50:19.050Z,23.44
2018-03-18T18:52:51.540Z,23.71
2018-03-18T18:55:24.015Z,23.63
2018-03-18T18:57:56.503Z,23.92
2018-03-18T19:00:28.974Z,23.82
2018-03-18T19:03:01.498Z,23.78
2018-03-18T19:05:33.954Z,23.86
2018-03-18T19:08:06.526Z,24.67
2018-03-18T19:10:39.080Z,24.04
2018-03-18T19:13:11.716Z,24.38
2018-03-18T19:15:44.215Z,24.08
2018-03-18T19:18:16.733Z,24.32
2018-03-18T19:20:49.211Z,24.58
2018-03-18T19:23:21.700Z,24.66
2018-03-18T19:25:54.175Z,24.76
2018-03-18T19:28:26.660Z,24.61
2018-03-18T19:30:59.127Z,24.49
2018-03-18T19:33:31.654Z,24.52
2018-03-18T19:36:04.141Z,24.69
2018-03-18T19:38:36.869Z,24.69
2018-03-18T19:41:09.530Z,24.98
2018-03-18T19:43:42.069Z,24.65
2018-03-18T19:46:14.620Z,24.57
2018-03-18T19:48:47.093Z,24.78
2018-03-18T19:51:19.590Z,24.59
2018-03-18T19:53:52.058Z,25.16
2018-03-18T19:56:24.538Z,24.48
2018-03-18T19:58:57.008Z,24.66
2018-03-18T20:01:29.503Z,25.06
2018-03-18T20:04:01.977Z,24.44
2018-03-18T20:06:34.509Z,24.31
2018-03-18T20:09:07.235Z,24.25
2018-03-18T20:11:39.802Z,24.60
2018-03-18T20:14:12.282Z,25.04
2018-03-18T20:16:44.795Z,24.88
2018-03-18T20:19:17.266Z,24.91
2018-03-18T20:21:49.763Z,25.24
2018-03-18T20:24:22.246Z,25.62
2018-03-18T20:26:54.742Z,26.01
2018-03-18T20:29:27.218Z,26.37
2018-03-18T20:31:59.706Z,26.78
2018-03-18T20:34:32.179Z,27.96
2018-03-18T20:37:04.685Z,27.75
2018-03-18T20:39:37.209Z,28.45
2018-03-18T20:42:09.801Z,28.42
2018-03-18T20:44:42.362Z,28.70
2018-03-18T20:47:14.926Z,29.57
2018-03-18T20:49:47.438Z,29.27
2018-03-18T20:52:19.944Z,30.10
2018-03-18T20:54:52.419Z,29.56
2018-03-18T20:57:24.915Z,30.00
2018-03-18T20:59:57.409Z,30.26
2018-03-18T21:02:29.903Z,30.59
2018-03-18T21:05:02.387Z,30.47
2018-03-18T21:07:34.958Z,30.69
2018-03-18T21:10:07.746Z,31.44
2018-03-18T21:12:40.287Z,31.29
2018-03-18T21:15:12.826Z,31.98
2018-03-18T21:17:45.401Z,31.98
2018-03-18T21:20:17.879Z,32.33
2018-03-18T21:22:50.372Z,32.42
2018-03-18T21:25:22.838Z,32.70
2018-03-18T21:27:55.386Z,32.35
2018-03-18T21:30:28.093Z,33.05
2018-03-18T21:33:00.615Z,32.85
2018-03-18T21:35:33.079Z,32.86
2018-03-18T21:38:05.702Z,33.13
2018-03-18T21:40:38.597Z,33.15
2018-03-18T21:43:11.342Z,33.31
2018-03-18T21:45:43.864Z,33.56
2018-03-18T21:48:16.377Z,33.46
2018-03-18T21:50:48.858Z,33.24
2018-03-18T21:53:21.346Z,33.62
2018-03-18T21:55:53.819Z,33.59
2018-03-18T21:58:26.316Z,33.49
2018-03-18T22:00:58.794Z,33.90
2018-03-18T22:03:31.286Z,33.18
2018-03-18T22:06:03.763Z,33.15
2018-03-18T22:08:36.350Z,32.91
2018-03-18T22:11:09.329Z,32.54
2018-03-18T22:13:41.947Z,32.24
2018-03-18T22:16:14.514Z,32.17
2018-03-18T22:18:47.022Z,32.05
2018-03-18T22:21:19.498Z,31.89
2018-03-18T22:23:51.987Z,31.96
2018-03-18T22:26:24.454Z,31.71
2018-03-18T22:28:56.998Z,31.84
2018-03-18T22:31:29.435Z,31.87
2018-03-18T22:34:01.931Z,31.84
2018-03-18T22:36:34.423Z,31.68
2018-03-18T22:39:07.131Z,31.58
2018-03-18T22:41:39.879Z,31.45
2018-03-18T22:44:12.387Z,31.64
2018-03-18T22:46:45.015Z,31.81
2018-03-18T22:49:17.575Z,31.88
2018-03-18T22:51:50.046Z,31.95
2018-03-18T22:54:22.535Z,31.89
2018-03-18T22:56:55.006Z,31.82
2018-03-18T22:59:27.501Z,32.07
2018-03-18T23:01:59.981Z,31.45
2018-03-18T23:04:32.474Z,31.73
2018-03-18T23:07:05.495Z,31.49
2018-03-18T23:09:38.356Z,31.33
2018-03-18T23:12:10.926Z,31.63
2018-03-18T23:14:43.520Z,31.53
2018-03-18T23:17:16.058Z,31.37
2018-03-18T23:19:48.530Z,31.45
2018-03-18T23:22:21.018Z,31.90
2018-03-18T23:24:53.489Z,31.59
2018-03-18T23:27:25.990Z,31.72
2018-03-18T23:29:58.453Z,31.53
2018-03-18T23:32:30.965Z,31.26
2018-03-18T23:35:03.443Z,31.74
2018-03-18T23:37:36.022Z,31.29
2018-03-18T23:40:08.671Z,31.71
2018-03-18T23:42:41.243Z,31.12
2018-03-18T23:45:13.820Z,31.24
2018-03-18T23:47:46.327Z,31.17
2018-03-18T23:50:18.821Z,30.94
2018-03-18T23:52:51.319Z,31.44
2018-03-18T23:55:23.791Z,31.30
2018-03-18T23:57:56.287Z,31.20
